sensor_id;sensor_type;location;lat;lon;timestamp;pressure;altitude;pressure_sealevel;temperature;humidity
37792;BME280;29527;55.766;37.570;2024-02-04T00:00:01;96717.69;;;0.78;69.45
37792;BME280;29527;55.766;37.570;2024-02-04T00:02:30;96651.97;;;0.47;69.71
37792;BME280;29527;55.766;37.570;2024-02-04T00:04:55;96698.84;;;0.73;69.78
37792;BME280;29527;55.766;37.570;2024-02-04T00:07:21;96697.69;;;0.75;69.94
37792;BME280;29527;55.766;37.570;2024-02-04T00:09:47;96693.69;;;0.81;69.53
37792;BME280;29527;55.766;37.570;2024-02-04T00:12:12;96689.69;;;0.77;69.61
37792;BME280;29527;55.766;37.570;2024-02-04T00:14:38;96694.25;;;0.75;69.88
37792;BME280;29527;55.766;37.570;2024-02-04T00:17:03;96678.88;;;0.70;70.39
37792;BME280;29527;55.766;37.570;2024-02-04T00:19:29;96676.22;;;0.70;70.56
37792;BME280;29527;55.766;37.570;2024-02-04T00:21:54;96661.81;;;0.74;70.56
37792;BME280;29527;55.766;37.570;2024-02-04T00:24:20;96652.66;;;0.68;70.20
37792;BME280;29527;55.766;37.570;2024-02-04T00:26:46;96632.44;;;0.59;69.88
37792;BME280;29527;55.766;37.570;2024-02-04T00:29:11;96652.53;;;0.70;70.40
37792;BME280;29527;55.766;37.570;2024-02-04T00:31:37;96655.97;;;0.70;70.70
37792;BME280;29527;55.766;37.570;2024-02-04T00:34:02;96617.22;;;0.53;70.77
37792;BME280;29527;55.766;37.570;2024-02-04T00:36:28;96637.28;;;0.74;70.59
37792;BME280;29527;55.766;37.570;2024-02-04T00:38:54;96624.25;;;0.72;70.58
37792;BME280;29527;55.766;37.570;2024-02-04T00:41:19;96628.69;;;0.71;70.77
37792;BME280;29527;55.766;37.570;2024-02-04T00:43:45;96625.34;;;0.79;71.09
37792;BME280;29527;55.766;37.570;2024-02-04T00:46:10;96620.06;;;0.79;71.04
37792;BME280;29527;55.766;37.570;2024-02-04T00:48:36;96573.97;;;0.55;71.17
37792;BME280;29527;55.766;37.570;2024-02-04T00:51:03;96566.91;;;0.56;71.19
37792;BME280;29527;55.766;37.570;2024-02-04T00:53:28;96623.53;;;0.90;71.48
37792;BME280;29527;55.766;37.570;2024-02-04T00:56:01;96567.59;;;0.68;71.17
37792;BME280;29527;55.766;37.570;2024-02-04T00:58:26;96615.34;;;0.93;70.71
37792;BME280;29527;55.766;37.570;2024-02-04T01:00:52;96597.03;;;0.91;71.72
37792;BME280;29527;55.766;37.570;2024-02-04T01:03:17;96580.41;;;0.91;71.16
37792;BME280;29527;55.766;37.570;2024-02-04T01:05:43;96582.34;;;0.98;70.81
37792;BME280;29527;55.766;37.570;2024-02-04T01:08:08;96584.53;;;1.03;70.64
37792;BME280;29527;55.766;37.570;2024-02-04T01:10:34;96580.78;;;1.06;71.07
37792;BME280;29527;55.766;37.570;2024-02-04T01:12:59;96582.44;;;1.07;70.79
37792;BME280;29527;55.766;37.570;2024-02-04T01:15:25;96580.50;;;1.09;70.95
37792;BME280;29527;55.766;37.570;2024-02-04T01:17:51;96514.72;;;0.79;70.81
37792;BME280;29527;55.766;37.570;2024-02-04T01:20:18;96559.81;;;1.14;70.59
37792;BME280;29527;55.766;37.570;2024-02-04T01:22:43;96549.41;;;1.12;70.87
37792;BME280;29527;55.766;37.570;2024-02-04T01:25:09;96550.78;;;1.17;70.96
37792;BME280;29527;55.766;37.570;2024-02-04T01:27:34;96549.38;;;1.22;71.05
37792;BME280;29527;55.766;37.570;2024-02-04T01:30:00;96544.25;;;1.21;70.57
37792;BME280;29527;55.766;37.570;2024-02-04T01:32:26;96506.47;;;1.02;70.59
37792;BME280;29527;55.766;37.570;2024-02-04T01:34:51;96531.75;;;1.23;71.38
37792;BME280;29527;55.766;37.570;2024-02-04T01:37:17;96540.88;;;1.28;71.29
37792;BME280;29527;55.766;37.570;2024-02-04T01:39:43;96538.63;;;1.34;71.56
37792;BME280;29527;55.766;37.570;2024-02-04T01:42:09;96516.47;;;1.26;71.68
37792;BME280;29527;55.766;37.570;2024-02-04T01:44:35;96514.38;;;1.30;71.35
37792;BME280;29527;55.766;37.570;2024-02-04T01:47:01;96524.03;;;1.39;71.21
37792;BME280;29527;55.766;37.570;2024-02-04T01:49:27;96474.66;;;1.13;71.05
37792;BME280;29527;55.766;37.570;2024-02-04T01:51:53;96459.97;;;1.11;71.26
37792;BME280;29527;55.766;37.570;2024-02-04T01:54:19;96501.44;;;1.37;71.64
37792;BME280;29527;55.766;37.570;2024-02-04T01:56:46;96504.59;;;1.40;71.11
37792;BME280;29527;55.766;37.570;2024-02-04T01:59:14;96506.50;;;1.48;71.35
37792;BME280;29527;55.766;37.570;2024-02-04T02:01:41;96519.69;;;1.48;71.43
37792;BME280;29527;55.766;37.570;2024-02-04T02:04:08;96494.44;;;1.46;71.40
37792;BME280;29527;55.766;37.570;2024-02-04T02:06:34;96491.94;;;1.44;71.44
37792;BME280;29527;55.766;37.570;2024-02-04T02:09:06;96476.44;;;1.41;71.08
37792;BME280;29527;55.766;37.570;2024-02-04T02:11:43;96463.03;;;1.34;71.92
37792;BME280;29527;55.766;37.570;2024-02-04T02:14:19;96494.69;;;1.52;72.07
37792;BME280;29527;55.766;37.570;2024-02-04T02:16:47;96484.44;;;1.49;71.97
37792;BME280;29527;55.766;37.570;2024-02-04T02:22:02;96473.97;;;1.57;72.18
37792;BME280;29527;55.766;37.570;2024-02-04T02:24:39;96471.25;;;1.67;72.37
37792;BME280;29527;55.766;37.570;2024-02-04T02:27:07;96471.56;;;1.64;71.81
37792;BME280;29527;55.766;37.570;2024-02-04T02:29:33;96411.88;;;1.27;72.03
37792;BME280;29527;55.766;37.570;2024-02-04T02:31:59;96468.75;;;1.66;71.96
37792;BME280;29527;55.766;37.570;2024-02-04T02:34:26;96473.75;;;1.69;71.82
37792;BME280;29527;55.766;37.570;2024-02-04T02:40:38;96453.97;;;1.91;72.30
37792;BME280;29527;55.766;37.570;2024-02-04T02:43:05;96441.31;;;1.77;71.99
37792;BME280;29527;55.766;37.570;2024-02-04T02:45:32;96435.22;;;1.76;72.07
37792;BME280;29527;55.766;37.570;2024-02-04T02:47:59;96437.56;;;1.79;72.48
37792;BME280;29527;55.766;37.570;2024-02-04T02:50:25;96443.19;;;1.84;72.91
37792;BME280;29527;55.766;37.570;2024-02-04T02:52:51;96435.16;;;1.86;72.16
37792;BME280;29527;55.766;37.570;2024-02-04T02:55:17;96438.69;;;1.95;72.20
37792;BME280;29527;55.766;37.570;2024-02-04T02:57:42;96435.72;;;1.98;72.05
37792;BME280;29527;55.766;37.570;2024-02-04T03:00:08;96422.38;;;1.99;72.39
37792;BME280;29527;55.766;37.570;2024-02-04T03:02:34;96420.56;;;2.00;72.28
37792;BME280;29527;55.766;37.570;2024-02-04T03:05:00;96434.13;;;2.05;71.88
37792;BME280;29527;55.766;37.570;2024-02-04T03:07:26;96412.19;;;2.05;72.04
37792;BME280;29527;55.766;37.570;2024-02-04T03:09:53;96392.19;;;1.94;72.38
37792;BME280;29527;55.766;37.570;2024-02-04T03:12:19;96411.72;;;2.09;72.90
37792;BME280;29527;55.766;37.570;2024-02-04T03:14:45;96407.75;;;2.05;72.46
37792;BME280;29527;55.766;37.570;2024-02-04T03:17:10;96404.78;;;2.08;72.18
37792;BME280;29527;55.766;37.570;2024-02-04T03:19:37;96408.47;;;2.15;72.38
37792;BME280;29527;55.766;37.570;2024-02-04T03:22:03;96403.88;;;2.18;72.48
37792;BME280;29527;55.766;37.570;2024-02-04T03:24:28;96397.63;;;2.19;72.78
37792;BME280;29527;55.766;37.570;2024-02-04T03:26:54;96395.25;;;2.15;72.86
37792;BME280;29527;55.766;37.570;2024-02-04T03:29:20;96391.81;;;2.15;72.66
37792;BME280;29527;55.766;37.570;2024-02-04T03:31:45;96413.28;;;2.20;72.91
37792;BME280;29527;55.766;37.570;2024-02-04T03:34:11;96402.72;;;2.20;72.46
37792;BME280;29527;55.766;37.570;2024-02-04T03:36:37;96410.50;;;2.22;72.76
37792;BME280;29527;55.766;37.570;2024-02-04T03:39:03;96404.59;;;2.28;72.76
37792;BME280;29527;55.766;37.570;2024-02-04T03:41:29;96398.28;;;2.21;72.47
37792;BME280;29527;55.766;37.570;2024-02-04T03:43:54;96394.66;;;2.22;72.51
37792;BME280;29527;55.766;37.570;2024-02-04T03:46:20;96395.31;;;2.24;72.33
37792;BME280;29527;55.766;37.570;2024-02-04T03:48:46;96386.66;;;2.13;73.43
37792;BME280;29527;55.766;37.570;2024-02-04T03:51:15;96382.13;;;2.24;73.23
37792;BME280;29527;55.766;37.570;2024-02-04T03:53:43;96386.34;;;2.17;73.41
37792;BME280;29527;55.766;37.570;2024-02-04T03:56:08;96375.97;;;2.15;73.45
37792;BME280;29527;55.766;37.570;2024-02-04T03:58:34;96384.91;;;2.22;73.73
37792;BME280;29527;55.766;37.570;2024-02-04T04:00:59;96384.91;;;2.22;73.21
37792;BME280;29527;55.766;37.570;2024-02-04T04:03:26;96386.88;;;2.20;73.22
37792;BME280;29527;55.766;37.570;2024-02-04T04:05:53;96385.75;;;2.23;73.14
37792;BME280;29527;55.766;37.570;2024-02-04T04:08:18;96319.22;;;1.84;73.82
37792;BME280;29527;55.766;37.570;2024-02-04T04:10:45;96382.13;;;2.24;73.41
37792;BME280;29527;55.766;37.570;2024-02-04T04:13:10;96381.81;;;2.27;73.27
37792;BME280;29527;55.766;37.570;2024-02-04T04:15:37;96344.63;;;2.12;73.57
37792;BME280;29527;55.766;37.570;2024-02-04T04:18:03;96377.88;;;2.31;73.59
37792;BME280;29527;55.766;37.570;2024-02-04T04:20:28;96354.09;;;2.23;73.58
37792;BME280;29527;55.766;37.570;2024-02-04T04:22:54;96355.09;;;2.30;73.39
37792;BME280;29527;55.766;37.570;2024-02-04T04:25:20;96373.81;;;2.45;73.22
37792;BME280;29527;55.766;37.570;2024-02-04T04:27:45;96370.19;;;2.46;73.08
37792;BME280;29527;55.766;37.570;2024-02-04T04:30:11;96369.19;;;2.47;73.51
37792;BME280;29527;55.766;37.570;2024-02-04T04:32:37;96363.25;;;2.45;73.56
37792;BME280;29527;55.766;37.570;2024-02-04T04:35:03;96363.25;;;2.45;73.65
37792;BME280;29527;55.766;37.570;2024-02-04T04:37:29;96360.81;;;2.52;73.29
37792;BME280;29527;55.766;37.570;2024-02-04T04:39:55;96374.00;;;2.52;73.28
37792;BME280;29527;55.766;37.570;2024-02-04T04:42:20;96357.03;;;2.54;73.67
37792;BME280;29527;55.766;37.570;2024-02-04T04:44:46;96317.78;;;2.25;73.16
37792;BME280;29527;55.766;37.570;2024-02-04T04:47:12;96355.22;;;2.55;73.33
37792;BME280;29527;55.766;37.570;2024-02-04T04:49:38;96361.16;;;2.57;73.54
37792;BME280;29527;55.766;37.570;2024-02-04T04:52:04;96354.06;;;2.57;73.85
37792;BME280;29527;55.766;37.570;2024-02-04T04:54:29;96355.06;;;2.56;73.56
37792;BME280;29527;55.766;37.570;2024-02-04T04:56:55;96350.25;;;2.52;73.39
37792;BME280;29527;55.766;37.570;2024-02-04T04:59:21;96337.72;;;2.54;73.48
37792;BME280;29527;55.766;37.570;2024-02-04T05:01:48;96357.19;;;2.61;73.62
37792;BME280;29527;55.766;37.570;2024-02-04T05:04:13;96313.41;;;2.42;73.23
37792;BME280;29527;55.766;37.570;2024-02-04T05:06:39;96344.97;;;2.60;73.21
37792;BME280;29527;55.766;37.570;2024-02-04T05:09:05;96355.53;;;2.60;73.02
37792;BME280;29527;55.766;37.570;2024-02-04T05:11:31;96332.75;;;2.59;73.37
37792;BME280;29527;55.766;37.570;2024-02-04T05:13:56;96346.97;;;2.58;73.31
37792;BME280;29527;55.766;37.570;2024-02-04T05:16:22;96338.38;;;2.56;73.56
37792;BME280;29527;55.766;37.570;2024-02-04T05:18:48;96326.66;;;2.58;73.50
37792;BME280;29527;55.766;37.570;2024-02-04T05:21:13;96342.66;;;2.57;73.76
37792;BME280;29527;55.766;37.570;2024-02-04T05:23:39;96329.78;;;2.54;73.15
37792;BME280;29527;55.766;37.570;2024-02-04T05:26:04;96336.06;;;2.53;73.71
37792;BME280;29527;55.766;37.570;2024-02-04T05:28:30;96338.69;;;2.53;73.52
37792;BME280;29527;55.766;37.570;2024-02-04T05:30:56;96326.16;;;2.55;74.11
37792;BME280;29527;55.766;37.570;2024-02-04T05:33:21;96329.47;;;2.57;73.49
37792;BME280;29527;55.766;37.570;2024-02-04T05:35:47;96323.84;;;2.52;73.81
37792;BME280;29527;55.766;37.570;2024-02-04T05:38:13;96325.16;;;2.48;74.06
37792;BME280;29527;55.766;37.570;2024-02-04T05:40:38;96328.13;;;2.53;73.95
37792;BME280;29527;55.766;37.570;2024-02-04T05:43:04;96339.81;;;2.50;73.82
37792;BME280;29527;55.766;37.570;2024-02-04T05:45:34;96337.03;;;2.52;74.55
37792;BME280;29527;55.766;37.570;2024-02-04T05:48:00;96288.44;;;2.28;74.26
37792;BME280;29527;55.766;37.570;2024-02-04T05:50:25;96323.38;;;2.56;73.78
37792;BME280;29527;55.766;37.570;2024-02-04T05:52:51;96327.81;;;2.56;74.10
37792;BME280;29527;55.766;37.570;2024-02-04T05:55:17;96334.09;;;2.63;72.86
37792;BME280;29527;55.766;37.570;2024-02-04T05:57:44;96330.66;;;2.63;73.45
37792;BME280;29527;55.766;37.570;2024-02-04T06:00:10;96332.75;;;2.59;73.58
37792;BME280;29527;55.766;37.570;2024-02-04T06:02:36;96332.44;;;2.62;73.73
37792;BME280;29527;55.766;37.570;2024-02-04T06:05:02;96339.38;;;2.63;73.68
37792;BME280;29527;55.766;37.570;2024-02-04T06:07:29;96345.50;;;2.64;73.36
37792;BME280;29527;55.766;37.570;2024-02-04T06:09:55;96340.88;;;2.57;73.15
37792;BME280;29527;55.766;37.570;2024-02-04T06:12:21;96353.28;;;2.65;73.12
37792;BME280;29527;55.766;37.570;2024-02-04T06:14:47;96349.94;;;2.63;73.47
37792;BME280;29527;55.766;37.570;2024-02-04T06:17:13;96360.88;;;2.68;73.46
37792;BME280;29527;55.766;37.570;2024-02-04T06:19:38;96358.38;;;2.67;73.78
37792;BME280;29527;55.766;37.570;2024-02-04T06:22:04;96364.50;;;2.67;73.57
37792;BME280;29527;55.766;37.570;2024-02-04T06:24:29;96367.81;;;2.69;72.94
37792;BME280;29527;55.766;37.570;2024-02-04T06:26:55;96332.09;;;2.49;72.57
37792;BME280;29527;55.766;37.570;2024-02-04T06:29:21;96372.72;;;2.64;73.02
37792;BME280;29527;55.766;37.570;2024-02-04T06:31:47;96382.16;;;2.67;72.81
37792;BME280;29527;55.766;37.570;2024-02-04T06:34:12;96383.94;;;2.58;72.95
37792;BME280;29527;55.766;37.570;2024-02-04T06:36:38;96395.16;;;2.60;72.74
37792;BME280;29527;55.766;37.570;2024-02-04T06:39:07;96389.53;;;2.55;72.84
37792;BME280;29527;55.766;37.570;2024-02-04T06:41:34;96389.75;;;2.62;72.71
37792;BME280;29527;55.766;37.570;2024-02-04T06:44:00;96391.50;;;2.53;72.88
37792;BME280;29527;55.766;37.570;2024-02-04T06:46:26;96401.13;;;2.62;72.66
37792;BME280;29527;55.766;37.570;2024-02-04T06:48:53;96405.06;;;2.58;72.18
37792;BME280;29527;55.766;37.570;2024-02-04T06:51:19;96408.56;;;2.67;72.85
37792;BME280;29527;55.766;37.570;2024-02-04T06:53:46;96409.09;;;2.70;72.14
37792;BME280;29527;55.766;37.570;2024-02-04T06:56:12;96416.53;;;2.75;72.67
37792;BME280;29527;55.766;37.570;2024-02-04T06:58:38;96410.75;;;2.80;72.46
37792;BME280;29527;55.766;37.570;2024-02-04T07:01:04;96413.09;;;2.83;71.46
37792;BME280;29527;55.766;37.570;2024-02-04T07:03:30;96406.81;;;2.84;71.23
37792;BME280;29527;55.766;37.570;2024-02-04T07:05:57;96383.63;;;2.61;71.29
37792;BME280;29527;55.766;37.570;2024-02-04T07:08:22;96415.25;;;2.87;71.27
37792;BME280;29527;55.766;37.570;2024-02-04T07:10:48;96430.66;;;2.92;72.12
37792;BME280;29527;55.766;37.570;2024-02-04T07:13:14;96430.16;;;2.97;72.36
37792;BME280;29527;55.766;37.570;2024-02-04T07:15:40;96443.56;;;3.04;72.47
37792;BME280;29527;55.766;37.570;2024-02-04T07:18:06;96445.53;;;3.10;71.60
37792;BME280;29527;55.766;37.570;2024-02-04T07:20:31;96386.97;;;2.71;71.52
37792;BME280;29527;55.766;37.570;2024-02-04T07:22:57;96432.63;;;2.90;71.35
37792;BME280;29527;55.766;37.570;2024-02-04T07:25:22;96437.38;;;2.78;71.98
37792;BME280;29527;55.766;37.570;2024-02-04T07:27:48;96453.38;;;2.85;71.78
37792;BME280;29527;55.766;37.570;2024-02-04T07:30:14;96449.69;;;2.69;71.42
37792;BME280;29527;55.766;37.570;2024-02-04T07:32:40;96460.25;;;2.69;72.17
37792;BME280;29527;55.766;37.570;2024-02-04T07:35:06;96466.47;;;2.60;72.31
37792;BME280;29527;55.766;37.570;2024-02-04T07:37:32;96470.94;;;2.60;72.89
37792;BME280;29527;55.766;37.570;2024-02-04T07:39:58;96491.41;;;2.57;72.41
37792;BME280;29527;55.766;37.570;2024-02-04T07:42:24;96474.41;;;2.60;73.04
37792;BME280;29527;55.766;37.570;2024-02-04T07:44:49;96477.72;;;2.62;73.79
37792;BME280;29527;55.766;37.570;2024-02-04T07:47:15;96471.75;;;2.60;72.98
37792;BME280;29527;55.766;37.570;2024-02-04T07:49:41;96479.06;;;2.66;73.22
37792;BME280;29527;55.766;37.570;2024-02-04T07:52:07;96448.59;;;2.46;73.17
37792;BME280;29527;55.766;37.570;2024-02-04T07:54:33;96496.09;;;2.72;73.96
37792;BME280;29527;55.766;37.570;2024-02-04T07:56:59;96495.47;;;2.78;73.33
37792;BME280;29527;55.766;37.570;2024-02-04T07:59:25;96502.72;;;2.76;72.12
37792;BME280;29527;55.766;37.570;2024-02-04T08:01:50;96500.28;;;2.83;71.91
37792;BME280;29527;55.766;37.570;2024-02-04T08:04:16;96507.81;;;2.69;72.73
37792;BME280;29527;55.766;37.570;2024-02-04T08:06:41;96519.41;;;2.77;72.35
37792;BME280;29527;55.766;37.570;2024-02-04T08:09:07;96518.88;;;2.73;72.80
37792;BME280;29527;55.766;37.570;2024-02-04T08:11:33;96518.97;;;2.63;72.47
37792;BME280;29527;55.766;37.570;2024-02-04T08:13:59;96532.97;;;2.82;71.50
37792;BME280;29527;55.766;37.570;2024-02-04T08:16:25;96550.78;;;2.80;72.90
37792;BME280;29527;55.766;37.570;2024-02-04T08:18:51;96552.66;;;2.87;72.89
37792;BME280;29527;55.766;37.570;2024-02-04T08:21:17;96544.41;;;2.91;73.03
37792;BME280;29527;55.766;37.570;2024-02-04T08:23:43;96546.75;;;2.94;72.05
37792;BME280;29527;55.766;37.570;2024-02-04T08:26:10;96562.81;;;3.00;71.94
37792;BME280;29527;55.766;37.570;2024-02-04T08:28:35;96569.97;;;3.08;70.94
37792;BME280;29527;55.766;37.570;2024-02-04T08:31:01;96559.84;;;3.04;70.48
37792;BME280;29527;55.766;37.570;2024-02-04T08:33:26;96576.38;;;3.06;71.48
37792;BME280;29527;55.766;37.570;2024-02-04T08:35:52;96574.69;;;2.96;70.97
37792;BME280;29527;55.766;37.570;2024-02-04T08:38:17;96581.66;;;3.06;70.13
37792;BME280;29527;55.766;37.570;2024-02-04T08:40:43;96560.28;;;2.91;70.94
37792;BME280;29527;55.766;37.570;2024-02-04T08:43:09;96581.09;;;2.94;70.60
37792;BME280;29527;55.766;37.570;2024-02-04T08:45:34;96578.41;;;2.85;71.55
37792;BME280;29527;55.766;37.570;2024-02-04T08:48:00;96597.72;;;2.86;71.14
37792;BME280;29527;55.766;37.570;2024-02-04T08:50:25;96595.97;;;2.95;69.88
37792;BME280;29527;55.766;37.570;2024-02-04T08:52:51;96589.56;;;2.97;70.22
37792;BME280;29527;55.766;37.570;2024-02-04T08:55:17;96587.22;;;2.94;70.07
37792;BME280;29527;55.766;37.570;2024-02-04T08:57:44;96604.25;;;3.00;70.00
37792;BME280;29527;55.766;37.570;2024-02-04T09:00:10;96600.25;;;2.96;69.99
37792;BME280;29527;55.766;37.570;2024-02-04T09:02:38;96591.16;;;2.90;69.36
37792;BME280;29527;55.766;37.570;2024-02-04T09:05:04;96607.94;;;3.07;68.22
37792;BME280;29527;55.766;37.570;2024-02-04T09:07:30;96615.91;;;3.15;68.67
37792;BME280;29527;55.766;37.570;2024-02-04T09:09:57;96620.69;;;3.12;68.24
37792;BME280;29527;55.766;37.570;2024-02-04T09:12:22;96579.13;;;2.96;67.82
37792;BME280;29527;55.766;37.570;2024-02-04T09:14:48;96607.69;;;2.92;68.31
37792;BME280;29527;55.766;37.570;2024-02-04T09:17:13;96612.69;;;3.04;68.45
37792;BME280;29527;55.766;37.570;2024-02-04T09:19:39;96624.63;;;3.08;67.86
37792;BME280;29527;55.766;37.570;2024-02-04T09:22:05;96626.03;;;3.20;68.94
37792;BME280;29527;55.766;37.570;2024-02-04T09:24:31;96572.03;;;2.96;66.70
37792;BME280;29527;55.766;37.570;2024-02-04T09:26:57;96611.94;;;3.11;67.53
37792;BME280;29527;55.766;37.570;2024-02-04T09:29:23;96616.44;;;3.19;67.03
37792;BME280;29527;55.766;37.570;2024-02-04T09:31:48;96613.16;;;3.25;66.13
37792;BME280;29527;55.766;37.570;2024-02-04T09:34:16;96572.19;;;2.95;67.06
37792;BME280;29527;55.766;37.570;2024-02-04T09:36:43;96612.69;;;3.30;67.64
37792;BME280;29527;55.766;37.570;2024-02-04T09:39:09;96616.25;;;3.47;66.41
37792;BME280;29527;55.766;37.570;2024-02-04T09:41:34;96630.16;;;3.57;66.08
37792;BME280;29527;55.766;37.570;2024-02-04T09:44:02;96634.66;;;3.65;65.73
37792;BME280;29527;55.766;37.570;2024-02-04T09:46:29;96635.13;;;3.61;65.98
37792;BME280;29527;55.766;37.570;2024-02-04T09:48:55;96608.78;;;3.42;65.62
37792;BME280;29527;55.766;37.570;2024-02-04T09:51:22;96651.00;;;3.61;65.55
37792;BME280;29527;55.766;37.570;2024-02-04T09:53:52;96641.19;;;3.44;65.88
37792;BME280;29527;55.766;37.570;2024-02-04T09:56:18;96640.47;;;3.34;65.91
37792;BME280;29527;55.766;37.570;2024-02-04T09:58:45;96653.19;;;3.30;66.43
37792;BME280;29527;55.766;37.570;2024-02-04T10:01:11;96650.50;;;3.22;66.66
37792;BME280;29527;55.766;37.570;2024-02-04T10:03:38;96653.09;;;3.14;65.30
37792;BME280;29527;55.766;37.570;2024-02-04T10:06:04;96609.59;;;2.82;65.68
37792;BME280;29527;55.766;37.570;2024-02-04T10:08:29;96636.34;;;3.05;66.41
37792;BME280;29527;55.766;37.570;2024-02-04T10:10:55;96622.50;;;3.11;64.85
37792;BME280;29527;55.766;37.570;2024-02-04T10:13:20;96648.09;;;3.37;64.37
37792;BME280;29527;55.766;37.570;2024-02-04T10:15:48;96657.44;;;3.50;62.94
37792;BME280;29527;55.766;37.570;2024-02-04T10:18:14;96614.59;;;3.20;63.03
37792;BME280;29527;55.766;37.570;2024-02-04T10:20:39;96664.22;;;3.52;62.63
37792;BME280;29527;55.766;37.570;2024-02-04T10:23:05;96668.47;;;3.45;62.56
37792;BME280;29527;55.766;37.570;2024-02-04T10:25:30;96658.28;;;3.58;62.02
37792;BME280;29527;55.766;37.570;2024-02-04T10:27:57;96661.69;;;3.77;61.47
37792;BME280;29527;55.766;37.570;2024-02-04T10:30:23;96657.75;;;3.90;60.30
37792;BME280;29527;55.766;37.570;2024-02-04T10:32:53;96677.69;;;4.10;59.89
37792;BME280;29527;55.766;37.570;2024-02-04T10:35:25;96659.44;;;4.07;59.96
37792;BME280;29527;55.766;37.570;2024-02-04T10:37:50;96667.41;;;4.07;59.69
37792;BME280;29527;55.766;37.570;2024-02-04T10:40:16;96683.00;;;4.10;59.25
37792;BME280;29527;55.766;37.570;2024-02-04T10:42:43;96681.09;;;3.94;59.59
37792;BME280;29527;55.766;37.570;2024-02-04T10:45:10;96670.63;;;3.84;59.41
37792;BME280;29527;55.766;37.570;2024-02-04T10:47:37;96691.66;;;3.86;59.83
37792;BME280;29527;55.766;37.570;2024-02-04T10:50:04;96697.28;;;3.83;60.19
37792;BME280;29527;55.766;37.570;2024-02-04T10:52:39;96693.97;;;3.89;59.14
37792;BME280;29527;55.766;37.570;2024-02-04T10:55:11;96642.84;;;3.45;59.43
37792;BME280;29527;55.766;37.570;2024-02-04T10:57:40;96697.69;;;3.70;59.81
37792;BME280;29527;55.766;37.570;2024-02-04T11:00:06;96701.97;;;3.63;59.92
37792;BME280;29527;55.766;37.570;2024-02-04T11:02:34;96706.94;;;3.66;60.38
37792;BME280;29527;55.766;37.570;2024-02-04T11:05:02;96707.25;;;3.63;59.88
37792;BME280;29527;55.766;37.570;2024-02-04T11:07:32;96713.47;;;3.53;59.70
37792;BME280;29527;55.766;37.570;2024-02-04T11:09:58;96711.84;;;3.61;60.16
37792;BME280;29527;55.766;37.570;2024-02-04T11:12:25;96701.00;;;3.64;60.01
37792;BME280;29527;55.766;37.570;2024-02-04T11:14:54;96693.06;;;3.64;59.34
37792;BME280;29527;55.766;37.570;2024-02-04T11:20:43;96712.94;;;4.19;59.65
37792;BME280;29527;55.766;37.570;2024-02-04T11:26:16;96708.19;;;4.31;57.76
37792;BME280;29527;55.766;37.570;2024-02-04T11:28:42;96708.88;;;4.41;56.86
37792;BME280;29527;55.766;37.570;2024-02-04T11:31:15;96704.25;;;4.43;57.59
37792;BME280;29527;55.766;37.570;2024-02-04T11:33:42;96705.25;;;4.51;57.57
37792;BME280;29527;55.766;37.570;2024-02-04T11:36:13;96712.56;;;4.73;56.23
37792;BME280;29527;55.766;37.570;2024-02-04T11:38:39;96721.19;;;4.76;56.06
37792;BME280;29527;55.766;37.570;2024-02-04T11:41:05;96721.03;;;4.85;56.13
37792;BME280;29527;55.766;37.570;2024-02-04T11:43:36;96712.75;;;5.13;56.27
37792;BME280;29527;55.766;37.570;2024-02-04T11:46:03;96693.34;;;5.05;55.70
37792;BME280;29527;55.766;37.570;2024-02-04T11:48:30;96710.91;;;5.47;54.21
37792;BME280;29527;55.766;37.570;2024-02-04T11:50:59;96708.28;;;5.30;54.59
37792;BME280;29527;55.766;37.570;2024-02-04T11:53:29;96722.69;;;5.28;54.95
37792;BME280;29527;55.766;37.570;2024-02-04T11:55:58;96735.13;;;5.19;55.15
37792;BME280;29527;55.766;37.570;2024-02-04T11:58:27;96729.19;;;5.09;56.31
37792;BME280;29527;55.766;37.570;2024-02-04T12:00:53;96724.53;;;5.11;56.50
37792;BME280;29527;55.766;37.570;2024-02-04T12:03:33;96743.94;;;5.20;55.64
37792;BME280;29527;55.766;37.570;2024-02-04T12:05:59;96734.13;;;5.03;56.00
37792;BME280;29527;55.766;37.570;2024-02-04T12:08:26;96703.31;;;4.61;55.83
37792;BME280;29527;55.766;37.570;2024-02-04T12:10:53;96719.53;;;4.66;55.84
37792;BME280;29527;55.766;37.570;2024-02-04T12:13:19;96724.78;;;4.58;56.58
37792;BME280;29527;55.766;37.570;2024-02-04T12:15:46;96736.75;;;4.62;55.93
37792;BME280;29527;55.766;37.570;2024-02-04T12:18:12;96745.59;;;4.28;56.32
37792;BME280;29527;55.766;37.570;2024-02-04T12:20:39;96739.53;;;4.09;57.24
37792;BME280;29527;55.766;37.570;2024-02-04T12:23:06;96738.03;;;3.98;57.21
37792;BME280;29527;55.766;37.570;2024-02-04T12:25:33;96740.91;;;3.79;57.11
37792;BME280;29527;55.766;37.570;2024-02-04T12:27:59;96726.91;;;3.86;57.47
37792;BME280;29527;55.766;37.570;2024-02-04T12:30:26;96748.84;;;4.13;56.94
37792;BME280;29527;55.766;37.570;2024-02-04T12:32:59;96714.03;;;4.00;56.55
37792;BME280;29527;55.766;37.570;2024-02-04T12:35:26;96729.16;;;4.16;57.09
37792;BME280;29527;55.766;37.570;2024-02-04T12:37:53;96737.28;;;4.23;57.34
37792;BME280;29527;55.766;37.570;2024-02-04T12:40:23;96704.13;;;4.02;57.34
37792;BME280;29527;55.766;37.570;2024-02-04T12:43:01;96744.44;;;4.30;57.40
37792;BME280;29527;55.766;37.570;2024-02-04T12:45:29;96724.28;;;3.95;57.00
37792;BME280;29527;55.766;37.570;2024-02-04T12:47:56;96769.31;;;4.03;57.80
37792;BME280;29527;55.766;37.570;2024-02-04T12:50:22;96741.53;;;3.72;57.98
37792;BME280;29527;55.766;37.570;2024-02-04T12:52:49;96756.25;;;3.75;58.02
37792;BME280;29527;55.766;37.570;2024-02-04T12:55:26;96769.50;;;3.75;58.98
37792;BME280;29527;55.766;37.570;2024-02-04T12:58:10;96759.78;;;3.57;59.46
37792;BME280;29527;55.766;37.570;2024-02-04T13:00:38;96725.50;;;3.21;58.52
37792;BME280;29527;55.766;37.570;2024-02-04T13:03:05;96767.44;;;3.16;59.08
37792;BME280;29527;55.766;37.570;2024-02-04T13:05:31;96764.28;;;2.94;60.43
37792;BME280;29527;55.766;37.570;2024-02-04T13:07:58;96775.22;;;2.81;61.13